Time;durP1;ratioP1;P1;durP2;ratioP2;P2;SDS_P1;SDS_P2;PMS_P1;PMS_P2;Temp;Humidity;BMP_temperature;BMP_pressure;BME280_temperature;BME280_humidity;BME280_pressure;Samples;Min_cycle;Max_cycle;Signal;HPM_P1;HPM_P2
2022/04/17 00:01:52;;;;;;;4.63;3.57;;;5.10;99.90;;;5.68;67.55;-19920.34;5021259;28;20764;-60
2022/04/17 00:04:20;;;;;;;4.03;3.63;;;5.10;99.90;;;5.55;68.23;-19915.72;5011728;28;20237;-59
2022/04/17 00:06:48;;;;;;;6.43;4.50;;;5.10;99.90;;;5.61;68.00;-19917.78;5011735;28;20310;-62
2022/04/17 00:09:18;;;;;;;6.27;4.63;;;5.00;99.90;;;5.48;68.59;-19913.50;5011217;28;20257;-62
2022/04/17 00:11:47;;;;;;;6.73;5.40;;;5.00;99.90;;;5.34;69.22;-19908.53;5011988;28;20549;-62
2022/04/17 00:14:15;;;;;;;6.93;5.03;;;4.90;99.90;;;5.22;69.20;-19904.44;5011637;28;20320;-62
2022/04/17 00:16:43;;;;;;;6.30;4.50;;;4.80;99.90;;;5.23;69.79;-19904.78;5011630;28;20725;-62
2022/04/17 00:19:11;;;;;;;6.50;4.90;;;4.80;99.90;;;5.24;69.50;-19905.13;5011741;28;20301;-62
2022/04/17 00:21:40;;;;;;;5.73;4.57;;;4.80;99.90;;;5.19;70.69;-19903.59;5011843;28;20245;-62
2022/04/17 00:24:10;;;;;;;6.30;4.50;;;4.70;99.90;;;5.09;70.60;-19900.16;5011860;28;20246;-59
2022/04/17 00:26:40;;;;;;;5.80;4.63;;;4.60;99.90;;;5.29;69.54;-19906.84;5011609;28;20904;-61
2022/04/17 00:29:08;;;;;;;6.53;4.30;;;4.60;99.90;;;5.37;69.31;-19909.75;5011386;28;20259;-59
2022/04/17 00:31:36;;;;;;;5.03;4.20;;;4.70;99.90;;;5.31;68.92;-19907.69;5012255;28;20313;-62
2022/04/17 00:34:04;;;;;;;5.77;4.43;;;4.70;99.90;;;5.33;69.38;-19908.38;5027865;28;20654;-60
2022/04/17 00:36:32;;;;;;;4.73;4.03;;;4.70;99.90;;;5.32;69.53;-19908.03;5035370;28;20229;-62
2022/04/17 00:39:00;;;;;;;4.27;3.80;;;4.70;99.90;;;5.07;70.02;-19899.31;5034658;28;20294;-62
2022/04/17 00:41:28;;;;;;;5.77;4.00;;;4.60;99.90;;;4.99;70.28;-19896.91;5034650;28;20313;-62
2022/04/17 00:43:57;;;;;;;4.30;3.77;;;4.60;99.90;;;4.96;71.04;-19895.91;5034757;28;20224;-62
2022/04/17 00:46:25;;;;;;;5.60;4.03;;;4.50;99.90;;;4.98;71.34;-19896.41;5034549;28;20713;-61
2022/04/17 00:48:53;;;;;;;4.47;3.60;;;4.50;99.90;;;5.06;70.26;-19899.13;5021712;28;20628;-62
2022/04/17 00:51:22;;;;;;;4.97;3.93;;;4.50;99.90;;;5.01;70.96;-19897.44;5016111;28;20223;-59
2022/04/17 00:53:52;;;;;;;4.00;3.30;;;4.40;99.90;;;5.15;70.03;-19902.22;5034669;28;20276;-62
2022/04/17 00:56:22;;;;;;;4.10;3.40;;;4.50;99.90;;;5.03;71.17;-19898.13;5034318;28;20295;-62
2022/04/17 00:58:51;;;;;;;4.50;3.57;;;4.40;99.90;;;5.23;69.31;-19904.94;5034277;28;20599;-62
2022/04/17 01:01:20;;;;;;;3.77;3.37;;;4.50;99.90;;;5.47;68.50;-19913.16;5028885;28;20314;-63
2022/04/17 01:03:50;;;;;;;4.13;3.20;;;4.60;99.90;;;5.13;69.45;-19901.38;5014208;28;20239;-64
2022/04/17 01:06:18;;;;;;;5.33;3.10;;;4.60;99.90;;;4.91;70.67;-19894.19;5014389;28;20208;-63
2022/04/17 01:08:47;;;;;;;3.73;3.37;;;4.50;99.90;;;4.99;71.91;-19896.75;5014108;28;20239;-61
2022/04/17 01:11:16;;;;;;;3.43;3.10;;;4.40;99.90;;;4.86;72.11;-19892.47;5014019;28;20228;-62
2022/04/17 01:13:45;;;;;;;4.97;3.63;;;4.40;99.90;;;4.84;71.98;-19891.63;5014136;28;20241;-59
2022/04/17 01:16:16;;;;;;;4.30;3.43;;;4.30;99.90;;;4.75;72.55;-19888.72;5014253;28;20231;-62
2022/04/17 01:18:59;;;;;;;5.33;3.30;;;4.30;99.90;;;4.66;72.76;-19885.63;5013885;28;20660;-63
2022/04/17 01:21:30;;;;;;;3.70;3.10;;;4.20;99.90;;;4.61;72.89;-19883.94;5014397;28;20188;-62
2022/04/17 01:26:57;;;;;;;3.57;3.23;;;4.10;99.90;;;4.57;73.78;-19882.56;5014596;28;20347;-63
2022/04/17 01:29:29;;;;;;;4.73;3.30;;;4.10;99.90;;;4.70;73.74;-19886.84;5019589;28;20223;-58
2022/04/17 01:31:57;;;;;;;3.80;3.07;;;4.00;99.90;;;4.68;73.78;-19886.31;5033754;28;20668;-59
2022/04/17 01:34:25;;;;;;;3.57;3.27;;;4.00;99.90;;;4.63;72.93;-19884.59;5033273;28;20774;-59
2022/04/17 01:36:55;;;;;;;3.73;3.37;;;4.00;99.90;;;4.84;72.99;-19891.78;5033711;28;20233;-60
2022/04/17 01:39:24;;;;;;;3.80;3.50;;;4.00;99.90;;;5.19;71.14;-19903.59;5032948;28;20293;-59
2022/04/17 01:41:54;;;;;;;4.10;3.50;;;4.20;99.90;;;5.12;71.02;-19901.03;5034238;28;20297;-62
2022/04/17 01:44:24;;;;;;;3.97;3.57;;;4.30;99.90;;;5.11;71.47;-19900.69;5032743;28;20259;-59
2022/04/17 01:46:53;;;;;;;4.73;3.80;;;4.30;99.90;;;5.18;70.79;-19903.06;5033232;28;20250;-59
2022/04/17 01:49:23;;;;;;;3.43;2.97;;;4.30;99.90;;;5.09;70.60;-19900.16;5032254;28;20230;-62
2022/04/17 01:51:52;;;;;;;3.67;3.10;;;4.30;99.90;;;5.31;69.81;-19907.69;5033524;28;20231;-61
2022/04/17 01:54:24;;;;;;;4.37;3.43;;;4.40;99.90;;;5.25;70.06;-19905.47;5032875;28;20205;-63
2022/04/17 01:56:53;;;;;;;4.97;3.00;;;4.40;99.90;;;5.28;70.17;-19906.50;5033896;28;20214;-62
2022/04/17 01:59:24;;;;;;;3.87;3.30;;;4.40;99.90;;;5.05;71.08;-19898.63;5033003;28;20312;-60
2022/04/17 02:01:53;;;;;;;3.33;2.80;;;4.40;99.90;;;4.92;72.35;-19894.34;5023402;28;20241;-59
2022/04/17 02:04:21;;;;;;;3.73;3.40;;;4.30;99.90;;;4.87;73.23;-19892.81;5013037;28;20237;-59
2022/04/17 02:06:50;;;;;;;3.60;3.13;;;4.20;99.90;;;4.54;74.80;-19881.38;5013241;28;20232;-58
2022/04/17 02:09:19;;;;;;;4.17;3.50;;;4.10;99.90;;;4.30;75.81;-19873.34;5012670;28;20206;-59
2022/04/17 02:11:49;;;;;;;3.67;3.10;;;3.90;99.90;;;4.09;76.31;-19866.16;5013980;28;20201;-61
2022/04/17 02:14:17;;;;;;;3.87;3.13;;;3.70;99.90;;;4.21;76.40;-19870.25;5012465;28;20321;-63
2022/04/17 02:16:45;;;;;;;3.67;3.33;;;3.70;99.90;;;4.16;76.55;-19868.38;5012620;28;20249;-61
2022/04/17 02:19:14;;;;;;;4.83;3.00;;;3.60;99.90;;;4.28;76.30;-19872.66;5012744;28;20232;-61
2022/04/17 02:21:42;;;;;;;4.00;3.37;;;3.60;99.90;;;4.06;77.08;-19864.97;5012550;28;20838;-61
2022/04/17 02:24:10;;;;;;;3.77;3.20;;;3.60;99.90;;;3.96;78.06;-19861.72;5013347;28;20213;-61
2022/04/17 02:26:38;;;;;;;3.73;3.43;;;3.50;99.90;;;4.23;77.13;-19870.94;5026666;28;20653;-61
2022/04/17 02:29:07;;;;;;;3.30;3.00;;;3.50;99.90;;;4.13;76.40;-19867.34;5032327;28;20310;-62
2022/04/17 02:31:35;;;;;;;2.93;2.63;;;3.50;99.90;;;4.48;74.68;-19879.31;5032306;28;20236;-61
2022/04/17 02:34:03;;;;;;;4.10;3.20;;;3.60;99.90;;;4.60;73.85;-19883.59;5032398;28;20248;-62
2022/04/17 02:36:31;;;;;;;3.83;3.33;;;3.70;99.90;;;4.55;73.61;-19881.88;5032519;28;20304;-63
2022/04/17 02:38:59;;;;;;;3.60;3.30;;;3.70;99.90;;;4.54;74.38;-19881.38;5032862;28;20205;-62
2022/04/17 02:41:27;;;;;;;4.50;3.30;;;3.70;99.90;;;4.49;74.51;-19879.66;5032006;28;20230;-62
2022/04/17 02:43:55;;;;;;;3.60;3.20;;;3.70;99.90;;;4.60;73.73;-19883.59;5032148;28;20234;-62
2022/04/17 02:49:11;;;;;;;3.40;3.10;;;3.70;99.90;;;4.58;73.73;-19882.91;5017598;28;20262;-62
2022/04/17 02:51:39;;;;;;;3.57;3.00;;;3.80;99.90;;;4.56;73.26;-19882.22;5012425;28;20321;-62
2022/04/17 02:54:07;;;;;;;3.93;3.03;;;3.80;99.90;;;4.54;73.75;-19881.38;5012630;28;20290;-63
2022/04/17 02:56:35;;;;;;;3.93;2.97;;;3.70;99.90;;;4.59;73.58;-19883.06;5011530;28;20222;-61
2022/04/17 02:59:03;;;;;;;3.53;3.23;;;3.70;99.90;;;4.51;73.42;-19880.34;5012369;28;20241;-63
2022/04/17 03:07:04;;;;;;;3.40;2.70;;;3.70;99.90;;;4.28;74.08;-19872.47;5012191;28;20232;-61
2022/04/17 03:09:32;;;;;;;3.13;2.80;;;3.60;99.90;;;4.00;75.40;-19862.91;5011960;28;20226;-62
2022/04/17 03:12:00;;;;;;;3.87;3.07;;;3.40;99.90;;;3.88;77.31;-19858.97;5012123;28;20689;-61
2022/04/17 03:14:28;;;;;;;3.37;2.90;;;3.40;99.90;;;3.97;75.75;-19861.88;5011972;28;20318;-62
2022/04/17 03:16:57;;;;;;;3.07;2.43;;;3.30;99.90;;;4.10;74.38;-19866.50;5012299;28;20229;-62
2022/04/17 03:19:25;;;;;;;3.10;2.77;;;3.40;99.90;;;4.22;73.50;-19870.59;5011766;28;20567;-61
2022/04/17 03:21:53;;;;;;;2.87;2.67;;;3.40;99.90;;;4.26;73.44;-19871.97;5017574;28;20244;-61
2022/04/17 03:24:21;;;;;;;4.00;2.80;;;3.50;99.90;;;3.91;75.23;-19860.00;5031688;28;20294;-62
2022/04/17 03:26:49;;;;;;;3.60;3.27;;;3.40;99.90;;;3.96;74.78;-19861.72;5032230;28;20289;-62
2022/04/17 03:29:17;;;;;;;3.77;3.10;;;3.40;99.90;;;4.07;74.74;-19865.47;5016792;28;20231;-61
2022/04/17 03:31:46;;;;;;;4.53;3.07;;;3.30;99.90;;;3.94;75.46;-19860.84;5031359;28;20263;-62
2022/04/17 03:34:15;;;;;;;4.60;2.97;;;3.30;99.90;;;3.99;74.74;-19862.72;5031470;28;20228;-61
2022/04/17 03:36:43;;;;;;;4.73;3.13;;;3.30;99.90;;;3.91;75.57;-19860.00;5031763;28;20229;-61
2022/04/17 03:39:11;;;;;;;5.67;3.57;;;3.20;99.90;;;3.89;75.67;-19859.31;5031590;28;20295;-62
2022/04/17 03:41:39;;;;;;;5.07;3.50;;;3.20;99.90;;;3.86;75.38;-19858.13;5032268;28;20259;-62
2022/04/17 03:44:07;;;;;;;4.00;3.23;;;3.20;99.90;;;3.58;76.91;-19848.91;5031665;28;20747;-62
2022/04/17 03:46:35;;;;;;;4.20;3.37;;;3.10;99.90;;;3.32;79.17;-19840.00;5031574;28;20629;-61
2022/04/17 03:49:03;;;;;;;5.50;3.40;;;3.00;99.90;;;3.09;79.90;-19832.13;5017680;28;20279;-61
2022/04/17 03:51:33;;;;;;;4.57;3.77;;;2.80;99.90;;;3.04;80.82;-19830.44;5011712;28;20313;-61
2022/04/17 03:54:01;;;;;;;4.47;3.77;;;2.70;99.90;;;3.46;78.85;-19844.78;5011978;28;20247;-62
2022/04/17 03:56:29;;;;;;;7.93;3.83;;;2.80;99.90;;;3.47;78.60;-19844.97;5011503;28;20330;-62
2022/04/17 03:58:57;;;;;;;6.13;4.17;;;2.80;99.90;;;3.68;77.34;-19852.31;5011583;28;20660;-61
2022/04/17 04:01:26;;;;;;;5.40;3.77;;;2.90;99.90;;;3.54;78.28;-19847.34;5021695;28;20225;-61
2022/04/17 04:03:55;;;;;;;5.07;3.80;;;2.90;99.90;;;3.49;79.01;-19845.63;5029248;28;20252;-61
2022/04/17 04:06:23;;;;;;;4.40;3.80;;;2.90;99.90;;;3.33;79.61;-19840.34;5032086;28;20238;-62
2022/04/17 04:08:53;;;;;;;5.03;4.37;;;2.80;99.90;;;3.32;79.09;-19839.81;5035847;28;20201;-62
2022/04/17 04:11:21;;;;;;;4.90;3.73;;;2.80;99.90;;;3.28;80.32;-19838.47;5035113;28;20311;-62
2022/04/17 04:13:49;;;;;;;4.50;4.00;;;2.70;99.90;;;3.19;80.38;-19835.56;5034338;28;20316;-61
2022/04/17 04:16:17;;;;;;;6.70;4.00;;;2.70;99.90;;;3.44;78.94;-19843.94;5034535;28;20238;-61
2022/04/17 04:18:45;;;;;;;4.90;4.00;;;2.80;99.90;;;3.56;77.54;-19848.03;5034649;28;20622;-60
2022/04/17 04:21:13;;;;;;;7.17;4.10;;;2.80;99.90;;;3.41;78.14;-19843.09;5034776;28;20204;-62
2022/04/17 04:23:41;;;;;;;5.27;4.00;;;2.80;99.90;;;3.51;77.87;-19846.50;5035219;28;20686;-62
2022/04/17 04:26:10;;;;;;;4.50;4.10;;;2.90;99.90;;;3.50;78.08;-19846.16;5034640;28;20271;-61
2022/04/17 04:28:37;;;;;;;5.13;3.90;;;2.90;99.90;;;3.62;76.98;-19850.09;5034821;28;20311;-61
2022/04/17 04:31:09;;;;;;;4.30;3.90;;;2.90;99.90;;;3.61;76.76;-19849.91;5034474;28;20321;-61
2022/04/17 04:33:39;;;;;;;5.57;4.40;;;2.90;99.90;;;3.70;76.35;-19852.81;5015022;28;20232;-63
2022/04/17 04:36:11;;;;;;;5.53;3.97;;;3.00;99.90;;;3.66;76.63;-19851.44;5015680;28;20293;-61
2022/04/17 04:38:40;;;;;;;4.57;3.90;;;3.00;99.90;;;3.52;77.82;-19846.84;5016533;28;20850;-59
2022/04/17 04:41:10;;;;;;;6.53;4.27;;;3.00;99.90;;;3.43;79.24;-19843.59;5034888;28;20333;-60
2022/04/17 04:43:38;;;;;;;5.27;4.07;;;2.90;99.90;;;3.51;78.48;-19846.50;5034390;28;20304;-61
2022/04/17 04:46:07;;;;;;;4.73;3.57;;;2.80;99.90;;;3.46;78.12;-19844.63;5034424;28;20705;-59
2022/04/17 04:51:23;;;;;;;6.37;3.97;;;2.80;99.90;;;3.18;78.94;-19835.22;5014338;28;20199;-59
2022/04/17 04:53:51;;;;;;;4.60;3.30;;;2.80;99.90;;;3.15;79.69;-19834.19;5014997;28;20418;-62
2022/04/17 04:56:21;;;;;;;5.07;3.60;;;2.80;99.90;;;3.18;79.63;-19835.22;5014100;28;20319;-62
2022/04/17 04:58:50;;;;;;;4.07;3.27;;;2.80;99.90;;;3.27;79.27;-19838.13;5013730;28;20475;-62
2022/04/17 05:01:18;;;;;;;4.13;3.47;;;2.80;99.90;;;3.18;79.70;-19835.03;5015175;28;20950;-61
2022/04/17 05:03:46;;;;;;;4.63;3.67;;;2.80;99.90;;;3.30;78.45;-19839.31;5033407;28;20222;-59
2022/04/17 05:06:14;;;;;;;4.67;3.27;;;2.90;99.90;;;3.41;78.31;-19842.91;5032582;28;20233;-59
2022/04/17 05:08:42;;;;;;;3.67;3.20;;;2.90;99.90;;;3.46;78.07;-19844.78;5034134;28;20298;-62
2022/04/17 05:11:10;;;;;;;3.80;3.40;;;3.00;99.90;;;3.93;75.12;-19860.50;5033353;28;20655;-62
2022/04/17 05:13:41;;;;;;;4.07;3.43;;;3.20;99.90;;;3.78;75.69;-19855.56;5032815;28;20229;-61
2022/04/17 05:16:09;;;;;;;3.70;3.20;;;3.20;99.90;;;3.91;76.27;-19859.84;5013009;28;20253;-59
2022/04/17 05:18:42;;;;;;;4.00;3.60;;;3.30;99.90;;;3.98;74.69;-19862.41;5012446;28;20226;-59
2022/04/17 05:21:10;;;;;;;4.13;3.50;;;3.40;99.90;;;4.05;74.31;-19864.63;5014327;28;20233;-59
2022/04/17 05:23:38;;;;;;;4.13;3.60;;;3.50;99.90;;;4.20;74.28;-19869.75;5013611;28;20344;-59
2022/04/17 05:26:06;;;;;;;4.50;3.30;;;3.60;99.90;;;4.42;73.97;-19877.44;5013387;28;20226;-62
2022/04/17 05:28:34;;;;;;;4.60;3.30;;;3.80;99.90;;;4.83;73.53;-19891.44;5012722;28;20649;-62
2022/04/17 05:31:03;;;;;;;4.67;3.30;;;4.00;99.90;;;5.05;71.09;-19898.63;5020118;28;20283;-62
2022/04/17 05:33:31;;;;;;;4.30;3.60;;;4.30;99.90;;;5.16;70.56;-19902.41;5032752;28;20233;-60
2022/04/17 05:35:59;;;;;;;5.90;3.73;;;4.40;99.90;;;5.31;69.54;-19907.69;5033553;28;20234;-57
2022/04/17 05:38:30;;;;;;;4.70;3.53;;;4.60;99.90;;;5.59;68.54;-19917.25;5032114;28;20225;-58
2022/04/17 05:40:58;;;;;;;3.57;3.23;;;4.80;99.90;;;5.73;68.26;-19921.88;5032591;28;20696;-59
2022/04/17 05:43:26;;;;;;;4.60;3.50;;;5.30;99.90;;;5.79;67.61;-19923.94;5032206;28;20231;-59
2022/04/17 05:45:54;;;;;;;4.90;3.57;;;5.10;99.90;;;5.98;66.25;-19930.44;5032862;28;20277;-61
2022/04/17 05:48:24;;;;;;;5.43;3.67;;;5.20;99.90;;;6.01;66.29;-19931.44;5023812;28;20207;-60
2022/04/17 05:50:53;;;;;;;4.17;3.77;;;5.30;99.90;;;6.14;65.63;-19936.06;5013240;28;20343;-57
2022/04/17 05:53:21;;;;;;;4.30;3.63;;;5.40;99.90;;;6.08;65.71;-19933.84;5012415;28;20235;-59
2022/04/17 05:55:50;;;;;;;3.47;3.13;;;5.40;99.90;;;6.27;64.25;-19940.16;5018890;28;20305;-59
2022/04/17 05:58:18;;;;;;;4.97;3.60;;;5.50;99.90;;;6.39;64.50;-19944.44;5031768;28;20256;-59
2022/04/17 06:00:47;;;;;;;4.50;3.00;;;5.60;99.90;;;6.41;63.44;-19945.13;5032550;28;20228;-60
2022/04/17 06:03:15;;;;;;;4.83;3.37;;;5.70;99.90;;;6.46;63.49;-19946.66;5032405;28;20227;-59
2022/04/17 06:05:45;;;;;;;4.30;3.80;;;5.80;99.90;;;6.59;62.71;-19951.09;5032880;28;20234;-59
2022/04/17 06:08:13;;;;;;;3.57;3.23;;;6.00;99.90;;;6.68;60.92;-19954.34;5031158;28;20225;-58
2022/04/17 06:10:41;;;;;;;3.77;3.03;;;6.10;99.90;;;6.64;62.13;-19952.97;5032040;28;20306;-60
2022/04/17 06:13:09;;;;;;;5.03;3.30;;;6.10;99.90;;;6.63;62.14;-19952.63;5031816;28;20231;-60
2022/04/17 06:15:39;;;;;;;3.53;3.03;;;6.00;99.90;;;6.53;60.81;-19949.06;5031987;28;20858;-60
2022/04/17 06:18:07;;;;;;;3.80;3.30;;;5.90;99.90;;;6.49;61.67;-19947.84;5032480;28;20253;-60
2022/04/17 06:20:35;;;;;;;4.27;3.50;;;5.90;99.90;;;6.42;62.01;-19945.47;5031698;28;20232;-59
2022/04/17 06:23:04;;;;;;;4.03;3.53;;;5.80;99.90;;;6.53;61.86;-19949.22;5031897;28;20231;-60
2022/04/17 06:25:32;;;;;;;4.80;3.33;;;5.80;99.90;;;6.62;61.56;-19952.13;5031562;28;20732;-58
2022/04/17 06:28:01;;;;;;;3.77;3.30;;;5.90;99.90;;;6.64;62.47;-19952.97;5030806;28;20591;-59
2022/04/17 06:30:29;;;;;;;4.00;3.60;;;6.00;99.90;;;6.73;63.28;-19955.88;5031445;28;20239;-59
2022/04/17 06:32:57;;;;;;;4.40;3.20;;;6.10;99.90;;;6.91;63.58;-19962.03;5018794;28;20660;-62
2022/04/17 06:35:25;;;;;;;4.57;3.63;;;6.20;99.90;;;7.10;61.36;-19968.53;5031432;28;20287;-63
2022/04/17 06:37:56;;;;;;;4.43;3.70;;;6.40;99.90;;;7.16;59.94;-19970.75;5031895;28;20316;-62
2022/04/17 06:40:28;;;;;;;3.77;3.43;;;6.40;99.90;;;7.16;60.03;-19970.75;5032037;28;20263;-63
2022/04/17 06:42:58;;;;;;;4.07;3.67;;;6.50;99.90;;;7.27;59.71;-19974.50;5031329;28;20791;-62
2022/04/17 06:45:26;;;;;;;4.57;3.63;;;6.60;99.90;;;7.23;59.85;-19972.97;5031876;28;20281;-62
2022/04/17 06:47:55;;;;;;;4.50;3.70;;;6.60;99.90;;;7.35;59.01;-19977.06;5032526;28;20707;-61
2022/04/17 06:50:24;;;;;;;6.23;3.73;;;6.60;99.90;;;7.28;58.44;-19974.84;5032025;28;20306;-62
2022/04/17 06:52:52;;;;;;;4.30;3.37;;;6.60;99.90;;;7.18;59.23;-19971.44;5030745;28;20225;-62
2022/04/17 06:55:20;;;;;;;3.90;3.50;;;6.60;99.90;;;7.30;58.76;-19975.38;5033207;28;20225;-61
2022/04/17 06:57:51;;;;;;;4.60;3.63;;;6.60;99.90;;;7.27;58.84;-19974.34;5031119;28;20247;-61
2022/04/17 07:00:22;;;;;;;4.53;3.60;;;6.60;99.90;;;7.49;60.24;-19981.69;5031420;28;20188;-62
2022/04/17 07:02:51;;;;;;;5.30;3.80;;;6.70;99.90;;;7.53;58.87;-19983.06;5031935;28;20204;-62
2022/04/17 07:05:19;;;;;;;4.10;3.60;;;6.80;99.90;;;7.66;58.34;-19987.66;5031196;28;20225;-62
2022/04/17 07:07:47;;;;;;;5.10;3.67;;;6.90;99.90;;;7.68;56.91;-19988.19;5028105;28;20605;-63
2022/04/17 07:10:15;;;;;;;4.47;3.50;;;7.00;99.90;;;7.78;56.64;-19991.78;5011189;28;20313;-61
2022/04/17 07:12:44;;;;;;;5.37;3.20;;;7.00;99.90;;;7.85;55.96;-19994.16;5010948;28;20257;-61
2022/04/17 07:15:15;;;;;;;4.70;3.50;;;7.10;99.90;;;7.97;54.30;-19998.25;5023575;28;20712;-62
2022/04/17 07:17:44;;;;;;;4.33;3.10;;;7.10;99.90;;;8.00;55.45;-19999.13;5031955;28;20287;-62
2022/04/17 07:20:12;;;;;;;5.13;3.27;;;7.20;99.90;;;8.20;53.92;-20006.13;5030032;28;20697;-63
2022/04/17 07:22:41;;;;;;;5.40;3.30;;;7.30;99.90;;;8.72;52.58;-20023.56;5031445;28;20624;-62
2022/04/17 07:25:12;;;;;;;3.80;3.20;;;7.50;99.90;;;9.31;52.13;-20043.88;5029337;28;20226;-63
2022/04/17 07:27:44;;;;;;;3.67;3.20;;;7.70;99.90;;;9.73;50.59;-20058.06;5031088;28;20229;-62
2022/04/17 07:30:16;;;;;;;4.13;3.70;;;8.10;99.90;;;9.50;50.38;-20050.38;5031336;28;20273;-60
2022/04/17 07:32:48;;;;;;;3.47;3.00;;;8.20;99.90;;;9.62;49.98;-20054.31;5021979;28;20332;-63
2022/04/17 07:35:18;;;;;;;4.10;3.70;;;8.30;99.90;;;9.60;50.04;-20053.63;5030811;28;20233;-62
2022/04/17 07:37:50;;;;;;;3.30;3.00;;;8.40;99.90;;;9.63;49.46;-20054.81;5031007;28;20296;-64
2022/04/17 07:40:21;;;;;;;5.57;3.50;;;8.40;99.90;;;9.97;49.94;-20066.09;5030834;28;20226;-60
2022/04/17 07:42:51;;;;;;;4.10;3.60;;;8.70;99.90;;;10.23;48.94;-20075.16;5030213;28;20225;-61
2022/04/17 07:45:21;;;;;;;3.90;3.47;;;8.90;99.90;;;10.47;50.09;-20083.19;5030221;28;20603;-60
2022/04/17 07:47:50;;;;;;;3.53;3.23;;;9.10;99.90;;;10.77;48.16;-20093.44;5027520;28;20276;-60
2022/04/17 07:50:24;;;;;;;4.27;3.60;;;9.30;99.90;;;10.77;47.18;-20093.44;5010983;28;20753;-62
2022/04/17 07:52:53;;;;;;;4.30;3.30;;;9.40;99.90;;;11.12;45.45;-20105.38;5011798;28;20222;-62
2022/04/17 07:55:23;;;;;;;5.27;3.40;;;9.60;99.90;;;11.27;45.26;-20110.50;5028839;28;20237;-59
2022/04/17 07:58:09;;;;;;;4.20;3.20;;;9.80;99.90;;;11.37;45.01;-20113.75;5030686;28;20645;-60
2022/04/17 08:00:47;;;;;;;4.33;3.60;;;9.90;99.90;;;11.35;45.16;-20113.22;5011057;28;20264;-59
2022/04/17 08:03:35;;;;;;;6.27;3.83;;;9.80;99.90;;;11.57;44.88;-20120.75;5028872;28;20317;-60
2022/04/17 08:06:05;;;;;;;4.23;2.90;;;9.90;99.90;;;11.69;44.07;-20124.69;5030282;28;20617;-61
2022/04/17 08:08:34;;;;;;;4.80;3.33;;;10.10;99.90;;;11.54;43.53;-20119.56;5030425;28;20226;-62
2022/04/17 08:11:02;;;;;;;3.60;3.17;;;10.20;99.90;;;11.19;43.17;-20107.78;5030188;28;20240;-63
2022/04/17 08:13:30;;;;;;;3.90;2.93;;;10.00;99.90;;;11.00;43.18;-20101.47;5028974;28;20235;-62
2022/04/17 08:15:59;;;;;;;3.47;2.57;;;9.90;99.90;;;10.81;44.23;-20094.78;5030817;28;20221;-63
2022/04/17 08:18:27;;;;;;;2.73;2.43;;;9.70;99.90;;;11.07;41.92;-20103.84;5031025;28;20285;-59
2022/04/17 08:20:56;;;;;;;2.50;2.30;;;9.80;99.90;;;11.03;43.23;-20102.31;5029996;28;20229;-60
2022/04/17 08:23:24;;;;;;;2.97;2.67;;;9.70;99.90;;;11.11;42.21;-20104.88;5030532;28;20244;-60
2022/04/17 08:25:52;;;;;;;2.53;2.33;;;9.80;99.90;;;11.24;42.62;-20109.47;5030747;28;20317;-62
2022/04/17 08:28:20;;;;;;;2.40;2.20;;;9.80;99.90;;;11.24;43.11;-20109.47;5030360;28;20230;-63
2022/04/17 08:30:49;;;;;;;5.17;2.70;;;9.90;99.90;;;11.37;42.42;-20113.91;5030328;28;20791;-63
2022/04/17 08:33:18;;;;;;;3.00;2.47;;;9.90;99.90;;;11.44;42.97;-20116.13;5016981;28;20221;-62
2022/04/17 08:35:46;;;;;;;4.23;2.27;;;10.10;99.90;;;11.52;43.22;-20119.03;5030752;28;20753;-63
2022/04/17 08:38:16;;;;;;;3.63;2.50;;;10.20;99.90;;;11.69;42.88;-20124.84;5030478;28;20610;-62
2022/04/17 08:40:44;;;;;;;2.67;2.47;;;10.40;99.90;;;11.99;42.18;-20135.09;5029405;28;20225;-64
2022/04/17 08:43:12;;;;;;;2.77;1.90;;;10.60;99.90;;;12.23;40.25;-20143.13;5030452;28;20236;-62
2022/04/17 08:45:40;;;;;;;2.10;1.90;;;10.80;99.90;;;12.16;40.29;-20140.72;5029811;28;20650;-62
2022/04/17 08:48:09;;;;;;;2.70;1.90;;;10.80;99.90;;;12.33;39.40;-20146.53;5024868;28;20195;-63
2022/04/17 08:50:43;;;;;;;2.87;2.27;;;10.90;99.90;;;12.37;40.14;-20147.91;5010975;28;20294;-64
2022/04/17 08:53:17;;;;;;;2.20;2.00;;;11.00;99.90;;;12.37;40.35;-20147.91;5010941;28;20227;-60
2022/04/17 08:55:52;;;;;;;3.67;2.30;;;11.00;99.90;;;12.20;40.17;-20142.28;5032959;28;20723;-59
2022/04/17 08:58:22;;;;;;;2.20;2.00;;;10.90;99.90;;;12.36;41.20;-20147.56;5033358;28;20234;-60
2022/04/17 09:00:52;;;;;;;2.73;1.90;;;10.90;99.90;;;12.69;40.86;-20158.66;5033206;28;20237;-61
2022/04/17 09:03:21;;;;;;;2.43;2.20;;;11.30;99.90;;;12.88;39.16;-20165.31;5033987;28;20206;-60
2022/04/17 09:05:51;;;;;;;2.50;2.10;;;11.30;99.90;;;13.40;39.13;-20182.91;5034323;28;20666;-60
2022/04/17 09:08:21;;;;;;;2.77;2.10;;;11.60;99.90;;;13.38;38.97;-20182.41;5033979;28;20599;-59
2022/04/17 09:10:58;;;;;;;2.10;1.90;;;11.80;99.90;;;13.58;39.47;-20188.88;5033191;28;20236;-60
2022/04/17 09:13:33;;;;;;;4.00;2.60;;;11.90;99.90;;;13.60;38.57;-20189.72;5032483;28;20249;-59
2022/04/17 09:16:03;;;;;;;3.07;2.20;;;12.10;99.90;;;13.23;39.68;-20177.09;5033178;28;20685;-60
2022/04/17 09:18:33;;;;;;;3.77;2.23;;;11.90;99.90;;;13.20;39.38;-20176.09;5032396;28;20724;-60
2022/04/17 09:21:03;;;;;;;3.60;2.10;;;11.90;99.90;;;13.44;38.96;-20184.28;5034263;28;20241;-61
2022/04/17 09:23:40;;;;;;;2.47;2.17;;;12.00;99.90;;;13.56;39.18;-20188.38;5033451;28;20305;-61
2022/04/17 09:26:09;;;;;;;2.67;2.30;;;12.00;99.90;;;13.68;39.98;-20192.47;5033416;28;20701;-60
2022/04/17 09:28:38;;;;;;;2.73;2.20;;;12.00;99.90;;;13.83;40.30;-20197.59;5033866;28;20245;-60
2022/04/17 09:31:14;;;;;;;2.37;2.00;;;12.30;99.90;;;14.01;39.58;-20203.56;5022610;28;20226;-61
2022/04/17 09:33:49;;;;;;;2.23;2.03;;;12.40;99.90;;;13.77;39.86;-20195.53;5013390;28;20257;-60
2022/04/17 09:36:31;;;;;;;2.53;2.30;;;12.40;99.90;;;13.74;39.62;-20194.34;5014884;28;20195;-60
2022/04/17 09:39:15;;;;;;;2.53;2.20;;;12.30;99.90;;;13.79;39.99;-20196.22;5031148;28;20662;-60
2022/04/17 09:41:57;;;;;;;3.33;2.57;;;12.40;99.90;;;13.44;40.12;-20184.44;5032706;28;20287;-59
2022/04/17 09:44:37;;;;;;;4.17;2.23;;;12.30;99.90;;;13.56;40.95;-20188.19;5033987;28;20236;-62
2022/04/17 09:47:09;;;;;;;4.47;2.10;;;12.30;99.90;;;13.62;41.14;-20190.25;5033554;28;20556;-61
2022/04/17 09:49:55;;;;;;;5.63;2.20;;;12.20;99.90;;;13.87;41.30;-20198.94;5014869;28;20247;-60
2022/04/17 09:52:28;;;;;;;4.40;2.80;;;12.30;99.90;;;13.76;42.23;-20195.19;5012939;28;20230;-59
2022/04/17 09:54:57;;;;;;;2.70;2.30;;;12.30;99.90;;;14.08;41.29;-20205.94;5012770;28;20248;-60
2022/04/17 09:57:31;;;;;;;2.70;2.30;;;12.50;99.90;;;13.90;41.38;-20199.81;5012790;28;20302;-62
2022/04/17 10:00:09;;;;;;;4.70;2.80;;;12.50;99.90;;;13.93;41.25;-20200.84;5013573;28;20197;-63
2022/04/17 10:02:39;;;;;;;2.80;2.43;;;12.60;99.90;;;13.96;41.50;-20202.03;5022666;28;20297;-62
2022/04/17 10:05:10;;;;;;;2.80;2.30;;;12.60;99.90;;;14.14;42.27;-20208.00;5029312;28;20218;-63
2022/04/17 10:07:42;;;;;;;2.40;2.20;;;12.70;99.90;;;13.95;41.92;-20201.69;5031182;28;20257;-60
2022/04/17 10:10:13;;;;;;;2.90;2.27;;;12.70;99.90;;;13.89;42.36;-20199.47;5021328;28;20226;-63
2022/04/17 10:12:43;;;;;;;3.70;2.43;;;12.70;99.90;;;13.58;42.75;-20189.06;5022718;28;20219;-62
2022/04/17 10:15:12;;;;;;;4.10;2.97;;;12.50;99.90;;;13.55;43.06;-20187.88;5024593;28;20269;-60
2022/04/17 10:17:46;;;;;;;3.37;2.60;;;12.40;99.90;;;13.48;43.19;-20185.47;5021736;28;20206;-58
2022/04/17 10:20:15;;;;;;;3.20;2.43;;;12.40;99.90;;;13.33;43.34;-20180.69;5022212;28;20233;-60
2022/04/17 10:22:49;;;;;;;3.50;2.50;;;12.30;99.90;;;13.47;43.85;-20185.31;5027990;28;20226;-62
2022/04/17 10:25:19;;;;;;;2.60;2.40;;;12.40;99.90;;;13.58;43.47;-20189.06;5030546;28;20273;-60
2022/04/17 10:27:53;;;;;;;3.03;2.53;;;12.40;99.90;;;13.56;43.35;-20188.19;5029318;28;20721;-60
2022/04/17 10:30:27;;;;;;;4.07;2.60;;;12.40;99.90;;;13.52;42.76;-20186.84;5020755;28;20201;-62
2022/04/17 10:33:31;;;;;;;4.00;2.40;;;12.40;99.90;;;13.22;43.31;-20176.94;5032848;28;20264;-61
2022/04/17 10:36:29;;;;;;;3.57;2.40;;;12.20;99.90;;;13.20;43.59;-20176.25;5032026;28;20221;-59
2022/04/17 10:39:14;;;;;;;3.07;2.50;;;12.20;99.90;;;13.12;43.84;-20173.53;5017092;28;20214;-59
2022/04/17 10:41:44;;;;;;;3.90;2.57;;;12.20;99.90;;;13.22;44.65;-20176.75;5012524;28;20207;-60
2022/04/17 10:44:13;;;;;;;2.30;2.10;;;12.10;99.90;;;13.34;43.14;-20180.88;5012689;28;20230;-61
2022/04/17 10:46:50;;;;;;;2.50;2.30;;;12.20;99.90;;;13.16;43.33;-20174.88;5012795;28;20691;-62
2022/04/17 10:49:21;;;;;;;3.67;2.57;;;12.10;99.90;;;13.17;43.12;-20175.22;5019524;28;20248;-59